Time;durP1;ratioP1;P1;durP2;ratioP2;P2;SDS_P1;SDS_P2;PMS_P1;PMS_P2;Temp;Humidity;BMP_temperature;BMP_pressure;BME280_temperature;BME280_humidity;BME280_pressure;Samples;Min_cycle;Max_cycle;Signal;HPM_P1;HPM_P2
2022/07/27 00:00:30;;;;;;;5.28;1.83;;;18.40;62.50;;;;;;5032257;28;20029;-66
2022/07/27 00:02:56;;;;;;;5.05;1.65;;;18.40;62.50;;;;;;5010522;28;20030;-66
2022/07/27 00:05:22;;;;;;;6.63;1.23;;;18.40;62.60;;;;;;5022617;28;20026;-66
2022/07/27 00:07:48;;;;;;;4.88;1.42;;;18.30;62.50;;;;;;5016711;28;20026;-66
2022/07/27 00:10:15;;;;;;;4.13;1.55;;;18.40;62.50;;;;;;5024677;28;20080;-66
2022/07/27 00:12:41;;;;;;;4.80;1.45;;;18.30;62.30;;;;;;5016813;28;20325;-65
2022/07/27 00:15:07;;;;;;;5.20;1.42;;;18.30;62.30;;;;;;5011706;28;20033;-66
2022/07/27 00:17:33;;;;;;;3.50;1.30;;;18.30;62.40;;;;;;5023977;28;20029;-66
2022/07/27 00:19:59;;;;;;;4.72;1.55;;;18.30;62.30;;;;;;5019723;28;20076;-66
2022/07/27 00:22:25;;;;;;;4.45;1.48;;;18.30;62.30;;;;;;5021319;28;20064;-66
2022/07/27 00:24:50;;;;;;;3.00;1.40;;;18.30;62.20;;;;;;5027498;28;20033;-66
2022/07/27 00:27:16;;;;;;;6.45;1.70;;;18.20;62.10;;;;;;5028105;28;20037;-66
2022/07/27 00:29:42;;;;;;;4.82;1.70;;;18.20;62.20;;;;;;5024313;28;20030;-66
2022/07/27 00:32:08;;;;;;;4.75;1.42;;;18.20;62.20;;;;;;5025529;28;20092;-66
2022/07/27 00:34:34;;;;;;;5.53;1.60;;;18.20;62.20;;;;;;5019827;28;20037;-66
2022/07/27 00:37:00;;;;;;;6.57;1.40;;;18.20;62.20;;;;;;5030177;28;20030;-66
2022/07/27 00:39:26;;;;;;;3.33;1.30;;;18.20;62.30;;;;;;5014418;28;20105;-66
2022/07/27 00:41:51;;;;;;;3.60;1.40;;;18.10;62.30;;;;;;5022198;28;20084;-66
2022/07/27 00:44:31;;;;;;;4.90;1.40;;;18.10;62.30;;;;;;5014710;28;20103;-66
2022/07/27 00:46:57;;;;;;;4.80;1.35;;;18.10;62.40;;;;;;5017233;28;20057;-66
2022/07/27 00:49:25;;;;;;;3.58;1.20;;;18.10;62.60;;;;;;4999163;28;20057;-66
2022/07/27 00:51:52;;;;;;;3.42;1.30;;;18.10;62.60;;;;;;5027394;28;20332;-66
2022/07/27 00:54:19;;;;;;;5.10;1.50;;;18.10;62.80;;;;;;5012998;28;20030;-66
2022/07/27 00:56:45;;;;;;;4.57;1.30;;;18.10;62.80;;;;;;5028563;28;20022;-66
2022/07/27 00:59:12;;;;;;;6.68;1.50;;;18.00;62.80;;;;;;5002133;28;20038;-66
2022/07/27 01:01:38;;;;;;;5.53;1.50;;;18.00;62.90;;;;;;5018827;28;20424;-66
2022/07/27 01:04:04;;;;;;;4.05;1.50;;;18.00;63.00;;;;;;5011042;28;20510;-66
2022/07/27 01:06:30;;;;;;;6.32;1.92;;;18.00;63.00;;;;;;5012362;28;20037;-66
2022/07/27 01:11:45;;;;;;;4.47;1.70;;;18.00;63.20;;;;;;5016028;28;20109;-66
2022/07/27 01:14:13;;;;;;;4.57;1.60;;;17.90;63.10;;;;;;5016136;28;20037;-66
2022/07/27 01:16:39;;;;;;;4.93;1.38;;;17.90;63.20;;;;;;5028294;28;20029;-66
2022/07/27 01:19:10;;;;;;;3.80;1.48;;;17.90;63.20;;;;;;5008566;28;20056;-66
2022/07/27 01:21:36;;;;;;;5.10;1.50;;;17.90;63.30;;;;;;5029922;28;20037;-66
2022/07/27 01:24:03;;;;;;;4.13;1.23;;;17.90;63.30;;;;;;5002326;28;20026;-66
2022/07/27 01:26:29;;;;;;;8.38;1.83;;;17.90;63.40;;;;;;5016353;28;20030;-66
2022/07/27 01:28:59;;;;;;;4.93;1.55;;;17.80;63.30;;;;;;5022877;28;20061;-66
2022/07/27 01:31:25;;;;;;;5.55;1.67;;;17.80;63.40;;;;;;5029598;28;20037;-66
2022/07/27 01:33:51;;;;;;;6.10;1.60;;;17.80;63.50;;;;;;5019213;28;20482;-66
2022/07/27 01:36:17;;;;;;;3.67;1.15;;;17.80;63.60;;;;;;5026085;28;20032;-66
2022/07/27 01:38:43;;;;;;;4.82;1.30;;;17.80;63.70;;;;;;5023081;28;20134;-66
2022/07/27 01:41:08;;;;;;;4.07;1.42;;;17.70;63.70;;;;;;5029886;28;20033;-66
2022/07/27 01:43:34;;;;;;;4.28;1.48;;;17.70;63.80;;;;;;5016768;28;20075;-66
2022/07/27 01:46:02;;;;;;;4.80;1.70;;;17.70;63.90;;;;;;5015453;28;20090;-66
2022/07/27 01:48:27;;;;;;;3.90;1.42;;;17.70;63.90;;;;;;5014016;28;20037;-66
2022/07/27 01:50:53;;;;;;;4.93;1.52;;;17.70;63.90;;;;;;5029210;28;20461;-66
2022/07/27 01:53:19;;;;;;;3.95;1.35;;;17.70;64.00;;;;;;5017330;28;20025;-66
2022/07/27 01:55:46;;;;;;;4.47;1.40;;;17.70;64.00;;;;;;5023616;28;20424;-66
2022/07/27 01:58:11;;;;;;;6.25;1.55;;;17.60;64.00;;;;;;5019472;28;20030;-66
2022/07/27 02:00:38;;;;;;;5.43;1.60;;;17.70;64.00;;;;;;5029317;28;20040;-66
2022/07/27 02:03:05;;;;;;;2.63;1.15;;;17.70;64.70;;;;;;5016610;28;20049;-66
2022/07/27 02:05:31;;;;;;;5.45;1.58;;;17.60;64.00;;;;;;5004682;28;20343;-66
2022/07/27 02:07:57;;;;;;;3.45;1.40;;;17.60;64.00;;;;;;5017565;28;20080;-66
2022/07/27 02:10:23;;;;;;;3.55;1.13;;;17.60;64.10;;;;;;5031249;28;20045;-66
2022/07/27 02:12:50;;;;;;;6.05;1.48;;;17.60;64.10;;;;;;5020810;28;20466;-66
2022/07/27 02:15:19;;;;;;;4.38;1.60;;;17.70;64.20;;;;;;5022722;28;20068;-66
2022/07/27 02:17:46;;;;;;;3.92;1.15;;;17.60;64.10;;;;;;5008678;28;20049;-65
2022/07/27 02:20:15;;;;;;;4.10;1.38;;;17.60;64.10;;;;;;5011979;28;20522;-66
2022/07/27 02:22:42;;;;;;;3.88;1.13;;;17.60;64.10;;;;;;5020350;28;20035;-66
2022/07/27 02:25:09;;;;;;;6.60;1.35;;;17.60;64.20;;;;;;5017006;28;20037;-66
2022/07/27 02:27:34;;;;;;;4.55;1.40;;;17.60;64.20;;;;;;5018451;28;20029;-66
2022/07/27 02:30:00;;;;;;;6.60;1.50;;;17.60;64.20;;;;;;5024621;28;20116;-66
2022/07/27 02:32:26;;;;;;;3.83;1.38;;;17.60;64.20;;;;;;5011844;28;20468;-66
2022/07/27 02:34:52;;;;;;;4.93;1.25;;;17.50;64.30;;;;;;5013654;28;20093;-66
2022/07/27 02:37:17;;;;;;;6.85;1.30;;;17.60;64.30;;;;;;5029268;28;20090;-66
2022/07/27 02:39:43;;;;;;;3.80;1.20;;;17.50;64.20;;;;;;5021186;28;20022;-66
2022/07/27 02:42:09;;;;;;;4.03;1.33;;;17.50;64.20;;;;;;5027103;28;20041;-66
2022/07/27 02:44:34;;;;;;;7.03;1.40;;;17.50;64.20;;;;;;5017893;28;20037;-60
2022/07/27 02:47:00;;;;;;;4.63;1.33;;;17.50;64.20;;;;;;5018315;28;20034;-60
2022/07/27 02:49:26;;;;;;;4.25;1.20;;;17.50;64.30;;;;;;5013451;28;20033;-60
2022/07/27 02:51:52;;;;;;;3.97;1.30;;;17.50;64.20;;;;;;5028931;28;20022;-60
2022/07/27 02:54:20;;;;;;;4.03;1.33;;;17.50;64.30;;;;;;4998894;28;20037;-60
2022/07/27 02:56:47;;;;;;;3.05;1.05;;;17.50;64.30;;;;;;5029963;28;20032;-60
2022/07/27 02:59:13;;;;;;;3.55;1.30;;;17.50;64.40;;;;;;5026116;28;20022;-60
2022/07/27 03:01:38;;;;;;;3.30;1.13;;;17.50;64.40;;;;;;5027302;28;20477;-60
2022/07/27 03:04:04;;;;;;;4.70;1.38;;;17.50;64.50;;;;;;5013220;28;20024;-60
2022/07/27 03:06:30;;;;;;;5.25;1.55;;;17.40;64.50;;;;;;5027439;28;20109;-60
2022/07/27 03:08:56;;;;;;;4.45;1.40;;;17.40;64.60;;;;;;5014570;28;20124;-60
2022/07/27 03:11:21;;;;;;;5.72;1.67;;;17.40;64.60;;;;;;5008454;28;20378;-60
2022/07/27 03:13:47;;;;;;;8.85;1.63;;;17.40;64.60;;;;;;5015873;28;20443;-59
2022/07/27 03:16:13;;;;;;;4.20;1.48;;;17.40;64.70;;;;;;5022063;28;20025;-60
2022/07/27 03:18:38;;;;;;;3.28;1.13;;;17.40;64.80;;;;;;5030925;28;20466;-59
2022/07/27 03:21:07;;;;;;;5.30;1.63;;;17.40;64.70;;;;;;5010824;28;20068;-62
2022/07/27 03:23:33;;;;;;;5.88;1.30;;;17.40;64.70;;;;;;5013593;28;20048;-59
2022/07/27 03:25:59;;;;;;;4.63;1.33;;;17.40;64.70;;;;;;5012722;28;20602;-60
2022/07/27 03:28:24;;;;;;;2.30;1.10;;;17.50;64.80;;;;;;5034007;28;20510;-60
2022/07/27 03:30:50;;;;;;;4.07;1.20;;;17.40;64.80;;;;;;5016927;28;20361;-60
2022/07/27 03:33:16;;;;;;;3.35;1.20;;;17.40;64.90;;;;;;5011715;28;20026;-60
2022/07/27 03:35:41;;;;;;;5.22;1.30;;;17.40;65.00;;;;;;5011767;28;20034;-60
2022/07/27 03:38:07;;;;;;;5.88;2.03;;;17.40;64.90;;;;;;5028878;28;20032;-60
2022/07/27 03:40:33;;;;;;;6.35;1.60;;;17.40;64.80;;;;;;5018697;28;20580;-60
2022/07/27 03:42:59;;;;;;;4.68;1.67;;;17.40;64.80;;;;;;5011737;28;20366;-60
2022/07/27 03:45:25;;;;;;;4.55;1.63;;;17.40;64.80;;;;;;5005682;28;20090;-60
2022/07/27 03:47:50;;;;;;;6.18;1.50;;;17.40;64.90;;;;;;5013279;28;20033;-60
2022/07/27 03:50:18;;;;;;;3.90;1.52;;;17.40;64.90;;;;;;5015795;28;20041;-61
2022/07/27 03:52:43;;;;;;;4.47;1.40;;;17.30;64.90;;;;;;5012013;28;20427;-60
2022/07/27 03:55:09;;;;;;;5.13;1.50;;;17.40;65.00;;;;;;5011402;28;20033;-60
2022/07/27 03:57:35;;;;;;;5.55;1.40;;;17.40;65.00;;;;;;5013540;28;20490;-60
2022/07/27 04:00:00;;;;;;;4.90;1.40;;;17.40;65.00;;;;;;5010738;28;20034;-60
2022/07/27 04:02:26;;;;;;;3.72;1.30;;;17.40;65.10;;;;;;5011643;28;20040;-61
2022/07/27 04:04:52;;;;;;;2.63;1.08;;;17.40;65.10;;;;;;5008122;28;20026;-60
2022/07/27 04:07:17;;;;;;;3.15;1.13;;;17.40;65.10;;;;;;5013031;28;20041;-60
2022/07/27 04:09:43;;;;;;;4.40;1.33;;;17.40;65.20;;;;;;5015103;28;20057;-60
2022/07/27 04:12:09;;;;;;;5.22;1.48;;;17.40;65.20;;;;;;5017663;28;20049;-60
2022/07/27 04:14:34;;;;;;;3.75;1.30;;;17.40;65.30;;;;;;5012614;28;20120;-60
2022/07/27 04:17:00;;;;;;;4.43;1.35;;;17.30;65.30;;;;;;4987647;28;20027;-60
2022/07/27 04:19:26;;;;;;;4.28;1.35;;;17.30;65.30;;;;;;5015117;28;20030;-60
2022/07/27 04:21:51;;;;;;;3.72;1.27;;;17.30;65.40;;;;;;5016059;28;20022;-60
2022/07/27 04:24:17;;;;;;;5.55;1.50;;;17.30;65.50;;;;;;5015492;28;20034;-60
2022/07/27 04:26:43;;;;;;;3.28;1.38;;;17.30;65.60;;;;;;4999759;28;20120;-60
2022/07/27 04:29:08;;;;;;;4.00;1.30;;;17.20;65.70;;;;;;5015533;28;20113;-60
2022/07/27 04:31:34;;;;;;;4.10;1.42;;;17.20;65.70;;;;;;5011626;28;20029;-60
2022/07/27 04:33:59;;;;;;;4.03;1.45;;;17.20;65.70;;;;;;5014696;28;20088;-60
2022/07/27 04:36:25;;;;;;;3.95;1.33;;;17.20;65.80;;;;;;5012761;28;20053;-60
2022/07/27 04:38:51;;;;;;;5.57;1.50;;;17.20;65.90;;;;;;5023215;28;20114;-60
2022/07/27 04:41:16;;;;;;;2.92;1.10;;;17.20;65.90;;;;;;5014201;28;20115;-60
2022/07/27 04:43:42;;;;;;;3.60;1.35;;;17.20;65.80;;;;;;5014270;28;20447;-60
2022/07/27 04:46:08;;;;;;;5.25;1.50;;;17.20;65.80;;;;;;4995739;28;20451;-61
2022/07/27 04:48:34;;;;;;;6.30;1.48;;;17.20;65.70;;;;;;5035893;28;20076;-61
2022/07/27 04:51:00;;;;;;;4.78;1.33;;;17.20;65.70;;;;;;5017577;28;20027;-60
2022/07/27 04:53:26;;;;;;;4.55;1.40;;;17.20;65.80;;;;;;5025634;28;20034;-61
2022/07/27 04:55:52;;;;;;;7.03;1.40;;;17.20;65.80;;;;;;5020984;28;20018;-60
2022/07/27 04:58:18;;;;;;;4.18;1.30;;;17.20;65.70;;;;;;5011369;28;20465;-61
2022/07/27 05:00:43;;;;;;;2.85;1.20;;;17.30;65.70;;;;;;5014061;28;20380;-60
2022/07/27 05:03:09;;;;;;;4.90;1.50;;;17.30;65.70;;;;;;5021596;28;20052;-60
2022/07/27 05:05:35;;;;;;;5.18;1.38;;;17.30;65.70;;;;;;5008976;28;20040;-60
2022/07/27 05:08:01;;;;;;;4.75;1.30;;;17.30;65.70;;;;;;5018816;28;20379;-60
2022/07/27 05:10:27;;;;;;;5.00;1.45;;;17.40;65.60;;;;;;5023291;28;20351;-60
2022/07/27 05:12:53;;;;;;;4.45;1.48;;;17.40;65.40;;;;;;5028157;28;20031;-60
2022/07/27 05:15:19;;;;;;;6.07;1.63;;;17.50;65.30;;;;;;5027601;28;20057;-60
2022/07/27 05:17:44;;;;;;;4.88;1.48;;;17.50;65.30;;;;;;5030626;28;20025;-60
2022/07/27 05:20:11;;;;;;;5.07;1.50;;;17.50;65.40;;;;;;5017444;28;20029;-60
2022/07/27 05:22:36;;;;;;;6.00;1.80;;;17.60;65.40;;;;;;5009126;28;20069;-60
2022/07/27 05:25:02;;;;;;;3.80;1.20;;;17.60;65.50;;;;;;5031672;28;20053;-60
2022/07/27 05:27:28;;;;;;;4.03;1.30;;;17.60;65.50;;;;;;5024845;28;20041;-60
2022/07/27 05:29:53;;;;;;;4.32;1.58;;;17.60;65.60;;;;;;5024691;28;20079;-60
2022/07/27 05:32:19;;;;;;;3.35;1.23;;;17.60;65.60;;;;;;5020018;28;20028;-60
2022/07/27 05:34:45;;;;;;;3.50;1.50;;;17.60;65.60;;;;;;5026380;28;20026;-60
2022/07/27 05:37:13;;;;;;;3.95;1.25;;;17.70;65.80;;;;;;5023326;28;20108;-60
2022/07/27 05:39:41;;;;;;;2.42;1.20;;;17.70;65.70;;;;;;5017940;28;20361;-60
2022/07/27 05:42:08;;;;;;;3.95;1.33;;;17.80;65.80;;;;;;5016419;28;20021;-60
2022/07/27 05:44:34;;;;;;;3.53;1.30;;;17.80;65.70;;;;;;5017060;28;20091;-60
2022/07/27 05:47:00;;;;;;;1.75;0.90;;;17.80;65.70;;;;;;5005117;28;20029;-60
2022/07/27 05:49:25;;;;;;;2.30;1.00;;;17.80;65.70;;;;;;5031014;28;20052;-60
2022/07/27 05:51:51;;;;;;;3.63;1.10;;;17.90;65.70;;;;;;5023005;28;20021;-60
2022/07/27 05:54:18;;;;;;;3.08;1.10;;;17.90;65.70;;;;;;5029787;28;20415;-60
2022/07/27 05:56:44;;;;;;;4.57;1.45;;;18.00;65.80;;;;;;5021979;28;20026;-60
2022/07/27 05:59:10;;;;;;;4.75;1.40;;;18.00;65.80;;;;;;5018396;28;20481;-61
2022/07/27 06:01:36;;;;;;;4.20;1.38;;;18.00;65.80;;;;;;5016779;28;20021;-60
2022/07/27 06:04:02;;;;;;;7.38;1.38;;;18.10;65.80;;;;;;5019516;28;20050;-59
2022/07/27 06:09:13;;;;;;;4.35;1.38;;;18.20;65.70;;;;;;5024605;28;20536;-61
2022/07/27 06:11:39;;;;;;;3.97;1.15;;;18.30;65.60;;;;;;5016762;28;20033;-61
2022/07/27 06:14:04;;;;;;;4.43;1.02;;;18.30;65.40;;;;;;5022752;28;20111;-61
2022/07/27 06:16:30;;;;;;;1.90;0.90;;;18.40;65.30;;;;;;5021259;28;20087;-60
2022/07/27 06:18:55;;;;;;;3.90;1.00;;;18.40;65.20;;;;;;5032898;28;20332;-61
2022/07/27 06:21:26;;;;;;;3.15;1.05;;;18.50;65.00;;;;;;5023799;28;20033;-60
2022/07/27 06:23:53;;;;;;;3.00;1.10;;;18.40;64.90;;;;;;5019523;28;20033;-60
2022/07/27 06:26:19;;;;;;;2.78;0.90;;;18.40;64.70;;;;;;5021650;28;20038;-61
2022/07/27 06:28:45;;;;;;;3.20;1.10;;;18.50;64.60;;;;;;5021814;28;20439;-61
2022/07/27 06:31:11;;;;;;;3.03;0.82;;;18.50;64.50;;;;;;5012886;28;20358;-60
2022/07/27 06:33:37;;;;;;;2.45;0.98;;;18.60;64.30;;;;;;5017035;28;20032;-60
2022/07/27 06:36:04;;;;;;;4.93;1.10;;;18.70;64.10;;;;;;5010797;28;20030;-60
2022/07/27 06:38:30;;;;;;;2.75;1.05;;;18.80;63.90;;;;;;5008655;28;20033;-60
2022/07/27 06:40:57;;;;;;;2.58;1.00;;;18.90;63.70;;;;;;5023225;28;20080;-60
2022/07/27 06:43:26;;;;;;;4.00;1.13;;;19.10;63.40;;;;;;5006133;28;20076;-61
2022/07/27 06:45:55;;;;;;;2.97;1.00;;;19.20;62.80;;;;;;5027899;28;20022;-61
2022/07/27 06:48:20;;;;;;;3.58;1.17;;;19.30;62.50;;;;;;5017095;28;20482;-60
2022/07/27 06:50:48;;;;;;;3.08;0.90;;;19.30;62.30;;;;;;5008604;28;20029;-60
2022/07/27 06:53:14;;;;;;;4.53;1.17;;;19.40;62.20;;;;;;5005428;28;20037;-61
2022/07/27 06:55:40;;;;;;;1.95;0.70;;;19.40;62.00;;;;;;5021386;28;20014;-61
2022/07/27 06:58:06;;;;;;;3.78;1.10;;;19.50;61.90;;;;;;5018846;28;20037;-61
2022/07/27 07:00:32;;;;;;;3.10;1.10;;;19.50;61.70;;;;;;5014680;28;20037;-62
2022/07/27 07:03:00;;;;;;;5.00;1.30;;;19.50;61.70;;;;;;5014368;28;20111;-60
2022/07/27 07:05:25;;;;;;;3.17;1.02;;;19.50;61.60;;;;;;5011566;28;20034;-60
2022/07/27 07:07:52;;;;;;;3.20;1.15;;;19.50;61.60;;;;;;5024283;28;20108;-60
2022/07/27 07:10:18;;;;;;;2.28;0.98;;;19.60;61.70;;;;;;5034470;28;20063;-60
2022/07/27 07:12:45;;;;;;;1.98;1.05;;;19.60;61.60;;;;;;5033299;28;20045;-60
2022/07/27 07:15:12;;;;;;;3.15;1.10;;;19.70;61.60;;;;;;5024389;28;20469;-60
2022/07/27 07:17:38;;;;;;;3.50;1.20;;;19.70;61.50;;;;;;5033257;28;20034;-60
2022/07/27 07:20:06;;;;;;;4.32;1.02;;;19.70;61.40;;;;;;5034161;28;20383;-60
2022/07/27 07:22:33;;;;;;;3.40;1.20;;;19.80;61.40;;;;;;5033362;28;20033;-60
2022/07/27 07:24:59;;;;;;;4.55;1.35;;;19.80;61.30;;;;;;5020344;28;20034;-60
2022/07/27 07:27:26;;;;;;;4.32;1.20;;;19.90;61.00;;;;;;5037339;28;20099;-60
2022/07/27 07:29:52;;;;;;;3.78;1.08;;;19.90;60.70;;;;;;5023571;28;20045;-60
2022/07/27 07:32:21;;;;;;;3.90;1.20;;;19.90;60.50;;;;;;5027796;28;20098;-60
2022/07/27 07:34:48;;;;;;;4.28;1.38;;;20.00;60.40;;;;;;5021332;28;20108;-60
2022/07/27 07:37:15;;;;;;;2.33;1.00;;;20.00;60.30;;;;;;5028920;28;20036;-60
2022/07/27 07:39:41;;;;;;;4.13;1.25;;;20.00;60.20;;;;;;5037020;28;20034;-60
2022/07/27 07:42:07;;;;;;;4.15;1.38;;;20.20;59.80;;;;;;5037199;28;20036;-60
2022/07/27 07:44:33;;;;;;;4.93;1.17;;;20.70;58.80;;;;;;5027407;28;20025;-60
2022/07/27 07:46:59;;;;;;;3.08;0.90;;;21.20;58.00;;;;;;5038682;28;20394;-60
2022/07/27 07:49:25;;;;;;;3.05;1.05;;;21.50;57.10;;;;;;5038244;28;20045;-60
2022/07/27 07:51:51;;;;;;;4.43;1.08;;;21.60;56.60;;;;;;5037248;28;20021;-60
2022/07/27 07:54:16;;;;;;;2.70;1.00;;;21.90;55.90;;;;;;5025474;28;20046;-60
2022/07/27 07:56:42;;;;;;;2.22;0.80;;;22.20;55.20;;;;;;5029356;28;20018;-60
2022/07/27 07:59:07;;;;;;;3.65;0.95;;;22.40;54.60;;;;;;5038028;28;20342;-60
2022/07/27 08:01:33;;;;;;;3.65;0.93;;;22.40;54.20;;;;;;5036402;28;20427;-60
2022/07/27 08:03:59;;;;;;;4.50;1.13;;;22.60;54.20;;;;;;5027746;28;20026;-60
2022/07/27 08:06:24;;;;;;;2.25;0.80;;;22.90;53.90;;;;;;5033868;28;20033;-60
2022/07/27 08:08:50;;;;;;;1.85;0.85;;;23.10;53.50;;;;;;5037360;28;20026;-60
2022/07/27 08:11:16;;;;;;;4.72;1.20;;;23.20;52.90;;;;;;5037583;28;20340;-60
2022/07/27 08:13:42;;;;;;;4.75;0.95;;;23.50;52.40;;;;;;5028432;28;20030;-60
2022/07/27 08:16:07;;;;;;;2.80;1.25;;;23.70;51.90;;;;;;5022990;28;20058;-60
2022/07/27 08:18:33;;;;;;;4.97;0.93;;;23.70;51.50;;;;;;5035507;28;20028;-60
2022/07/27 08:20:59;;;;;;;4.00;1.17;;;23.90;51.10;;;;;;5036176;28;20029;-61
2022/07/27 08:23:25;;;;;;;5.50;1.30;;;24.00;50.20;;;;;;5032427;28;20026;-60
2022/07/27 08:25:52;;;;;;;3.50;1.00;;;24.20;49.80;;;;;;5037434;28;20040;-60
2022/07/27 08:28:17;;;;;;;4.07;1.17;;;24.30;49.10;;;;;;5037676;28;20460;-60
2022/07/27 08:30:43;;;;;;;3.50;1.00;;;24.00;49.20;;;;;;5036454;28;20029;-60
2022/07/27 08:33:10;;;;;;;5.03;1.17;;;23.80;49.70;;;;;;5033725;28;20068;-60
2022/07/27 08:35:35;;;;;;;4.43;1.00;;;23.60;49.80;;;;;;5029784;28;20045;-60
2022/07/27 08:38:04;;;;;;;4.32;0.80;;;23.50;49.60;;;;;;5035833;28;20037;-60
2022/07/27 08:40:29;;;;;;;3.55;1.02;;;23.60;49.10;;;;;;5036908;28;20043;-60
2022/07/27 08:42:55;;;;;;;3.15;1.23;;;23.60;49.10;;;;;;5037079;28;20104;-61
2022/07/27 08:45:23;;;;;;;3.45;0.93;;;23.70;48.60;;;;;;5027449;28;20025;-60
2022/07/27 08:47:48;;;;;;;3.00;0.90;;;23.90;48.30;;;;;;5036056;28;20029;-60
2022/07/27 08:50:23;;;;;;;4.13;1.05;;;24.20;47.90;;;;;;5036802;28;20509;-60
2022/07/27 08:53:00;;;;;;;4.18;1.05;;;24.40;47.50;;;;;;5037072;28;20104;-60
2022/07/27 08:55:29;;;;;;;2.80;0.93;;;24.60;46.80;;;;;;5023123;28;20034;-60
2022/07/27 08:57:55;;;;;;;2.75;0.98;;;24.90;46.50;;;;;;5032406;28;20064;-61
2022/07/27 09:00:22;;;;;;;5.65;1.25;;;25.10;45.80;;;;;;5027355;28;20061;-61
2022/07/27 09:02:47;;;;;;;5.32;1.35;;;25.30;45.00;;;;;;5046913;28;20041;-61
2022/07/27 09:05:14;;;;;;;2.50;0.82;;;25.30;44.70;;;;;;5024619;28;20026;-60
2022/07/27 09:07:39;;;;;;;3.13;1.05;;;25.00;44.90;;;;;;5035350;28;20030;-60
2022/07/27 09:10:06;;;;;;;4.53;1.05;;;24.50;45.40;;;;;;5024263;28;20120;-60
2022/07/27 09:12:32;;;;;;;4.55;1.10;;;23.90;46.00;;;;;;5018827;28;20450;-61
2022/07/27 09:15:03;;;;;;;3.55;1.25;;;23.40;46.70;;;;;;5011226;28;20025;-60
2022/07/27 09:17:29;;;;;;;;;;;23.30;47.20;;;;;;5022853;28;20319;-61
2022/07/27 09:20:00;;;;;;;2.92;0.82;;;23.50;47.20;;;;;;5022357;28;19910;-60
2022/07/27 09:22:44;;;;;;;1.90;0.70;;;23.90;46.70;;;;;;5016637;28;20422;-60
2022/07/27 09:25:14;;;;;;;4.28;1.10;;;24.40;45.80;;;;;;5016660;28;20091;-61
2022/07/27 09:27:43;;;;;;;3.42;1.05;;;24.80;45.00;;;;;;5028812;28;20339;-61
2022/07/27 09:30:11;;;;;;;3.17;0.80;;;25.10;44.10;;;;;;5017899;28;20375;-61
2022/07/27 09:32:38;;;;;;;3.72;1.40;;;25.40;43.50;;;;;;5012281;28;20041;-61
2022/07/27 09:35:21;;;;;;;3.05;0.93;;;25.60;42.90;;;;;;5005303;28;20087;-61
2022/07/27 09:37:46;;;;;;;2.63;1.00;;;25.30;42.90;;;;;;5010275;28;20052;-66
2022/07/27 09:40:15;;;;;;;3.53;1.05;;;24.80;43.40;;;;;;5004585;28;20030;-66
2022/07/27 09:42:41;;;;;;;4.22;1.05;;;24.50;43.80;;;;;;5015692;28;20068;-64
2022/07/27 09:45:30;;;;;;;4.80;1.20;;;24.10;44.30;;;;;;5014092;28;20462;-65
2022/07/27 09:48:08;;;;;;;1.65;0.93;;;23.80;44.90;;;;;;5005336;28;20040;-66
2022/07/27 09:50:34;;;;;;;3.53;1.00;;;23.40;45.10;;;;;;5003534;28;20033;-65
2022/07/27 09:53:20;;;;;;;3.10;0.90;;;23.20;45.60;;;;;;5019339;28;20031;-65
2022/07/27 09:55:59;;;;;;;2.17;0.80;;;23.00;45.70;;;;;;5033671;28;20036;-66
2022/07/27 09:58:39;;;;;;;4.10;1.33;;;22.90;45.90;;;;;;5008955;28;20036;-65
2022/07/27 10:01:05;;;;;;;3.15;0.90;;;22.80;45.90;;;;;;5016380;28;20038;-65
2022/07/27 10:03:31;;;;;;;3.85;1.15;;;22.80;46.10;;;;;;5019834;28;20100;-65
2022/07/27 10:05:57;;;;;;;5.18;1.10;;;22.60;46.20;;;;;;5032126;28;20041;-66
2022/07/27 10:08:24;;;;;;;5.90;0.95;;;22.50;46.40;;;;;;5009717;28;20053;-66
2022/07/27 10:10:50;;;;;;;4.03;1.35;;;22.40;46.70;;;;;;5015587;28;20068;-66
2022/07/27 10:13:16;;;;;;;4.53;1.42;;;22.20;46.90;;;;;;5010766;28;20030;-66
2022/07/27 10:15:42;;;;;;;2.70;1.08;;;22.10;47.20;;;;;;5011207;28;20344;-66
2022/07/27 10:18:16;;;;;;;6.35;1.75;;;22.10;48.20;;;;;;5012683;28;20026;-65
2022/07/27 10:20:44;;;;;;;3.00;1.02;;;22.00;47.80;;;;;;5013086;28;20033;-66
2022/07/27 10:23:27;;;;;;;4.43;1.38;;;21.90;48.10;;;;;;5012628;28;20061;-66
2022/07/27 10:26:27;;;;;;;5.63;1.40;;;21.90;48.30;;;;;;5023210;28;20034;-66
2022/07/27 10:28:56;;;;;;;2.35;0.90;;;21.90;48.10;;;;;;5002493;28;20069;-66
2022/07/27 10:31:30;;;;;;;4.97;1.13;;;21.90;47.90;;;;;;5011358;28;20033;-65
2022/07/27 10:33:59;;;;;;;2.67;0.98;;;22.00;47.80;;;;;;5012498;28;20032;-65
2022/07/27 10:36:31;;;;;;;2.40;1.15;;;22.10;47.80;;;;;;5014650;28;20502;-65
2022/07/27 10:38:59;;;;;;;4.63;1.42;;;22.20;47.60;;;;;;5018189;28;20387;-65
2022/07/27 10:41:29;;;;;;;3.28;1.17;;;22.30;47.60;;;;;;5018479;28;20437;-65
2022/07/27 10:44:13;;;;;;;3.13;1.02;;;22.40;47.30;;;;;;5010576;28;20125;-65
2022/07/27 10:47:05;;;;;;;6.07;1.50;;;22.70;46.90;;;;;;5006190;28;20055;-65
2022/07/27 10:49:34;;;;;;;4.10;1.38;;;23.00;46.50;;;;;;4995098;28;20046;-65
2022/07/27 10:52:01;;;;;;;3.78;1.13;;;23.20;46.60;;;;;;5015050;28;20410;-64
2022/07/27 10:54:37;;;;;;;4.90;1.00;;;23.20;46.30;;;;;;5013224;28;20029;-65
2022/07/27 10:57:06;;;;;;;3.78;0.98;;;23.20;46.30;;;;;;5027082;28;20033;-65
2022/07/27 10:59:38;;;;;;;3.70;1.15;;;23.20;46.30;;;;;;5010695;28;20034;-65
2022/07/27 11:02:12;;;;;;;3.40;1.10;;;23.20;46.40;;;;;;5009449;28;20037;-65
2022/07/27 11:04:45;;;;;;;5.35;1.48;;;23.20;46.20;;;;;;5014945;28;20022;-65
2022/07/27 11:07:18;;;;;;;4.13;1.00;;;23.30;46.30;;;;;;5030594;28;20458;-65
2022/07/27 11:09:46;;;;;;;2.85;0.90;;;23.60;45.70;;;;;;5023534;28;20361;-65
2022/07/27 11:12:14;;;;;;;4.28;1.20;;;24.00;45.00;;;;;;5044640;28;20136;-65
2022/07/27 11:14:55;;;;;;;4.38;1.20;;;24.30;44.40;;;;;;5001336;28;20473;-65
2022/07/27 11:17:27;;;;;;;3.08;1.00;;;24.50;43.80;;;;;;5024465;28;20025;-65
2022/07/27 11:20:00;;;;;;;3.40;1.10;;;24.80;43.60;;;;;;5017795;28;20041;-65
2022/07/27 11:22:38;;;;;;;2.47;1.00;;;25.20;43.10;;;;;;5026753;28;20025;-65
2022/07/27 11:25:05;;;;;;;2.80;0.95;;;25.40;42.60;;;;;;5011618;28;20030;-65
2022/07/27 11:27:31;;;;;;;3.55;1.20;;;25.40;42.90;;;;;;5012531;28;20022;-65
2022/07/27 11:29:57;;;;;;;2.88;0.90;;;25.30;42.20;;;;;;5020765;28;20022;-64
2022/07/27 11:32:23;;;;;;;4.05;1.10;;;25.10;42.60;;;;;;5019894;28;20033;-64
2022/07/27 11:34:49;;;;;;;5.30;1.40;;;24.80;42.20;;;;;;5013643;28;20026;-63
2022/07/27 11:37:22;;;;;;;2.83;0.80;;;24.60;42.90;;;;;;5012823;28;20366;-64
2022/07/27 11:39:58;;;;;;;3.38;1.10;;;24.40;43.50;;;;;;5007184;28;20025;-64
2022/07/27 11:42:34;;;;;;;2.75;1.27;;;24.20;43.70;;;;;;5008624;28;20029;-64
2022/07/27 11:45:00;;;;;;;2.00;0.93;;;24.00;44.30;;;;;;5009725;28;20030;-64
2022/07/27 11:47:28;;;;;;;4.32;1.20;;;23.90;44.60;;;;;;5027631;28;20026;-63
2022/07/27 11:50:06;;;;;;;2.75;1.00;;;23.70;44.60;;;;;;5007248;28;20027;-64
2022/07/27 11:52:32;;;;;;;2.45;1.00;;;23.60;44.60;;;;;;5009627;28;20030;-64
2022/07/27 11:54:58;;;;;;;5.10;1.33;;;23.50;44.90;;;;;;4995717;28;20022;-64
2022/07/27 11:57:31;;;;;;;2.35;0.85;;;23.50;44.90;;;;;;5010245;28;20084;-64
2022/07/27 11:59:57;;;;;;;3.00;1.17;;;23.40;44.70;;;;;;5000647;28;20036;-63
2022/07/27 12:02:25;;;;;;;3.03;1.23;;;23.40;44.70;;;;;;5003622;28;20089;-64
2022/07/27 12:04:52;;;;;;;3.00;1.20;;;23.40;44.90;;;;;;5013428;28;20037;-64
2022/07/27 12:07:27;;;;;;;4.70;1.50;;;23.40;43.90;;;;;;5018904;28;20120;-64
2022/07/27 12:09:56;;;;;;;2.95;1.13;;;23.50;43.50;;;;;;5010162;28;20038;-64
2022/07/27 12:12:24;;;;;;;3.28;0.90;;;23.60;43.30;;;;;;5002176;28;20459;-64
2022/07/27 12:15:01;;;;;;;4.75;1.27;;;23.70;42.90;;;;;;5013699;28;20387;-64
2022/07/27 12:17:35;;;;;;;3.53;1.30;;;23.70;42.60;;;;;;5015302;28;20042;-64
2022/07/27 12:20:00;;;;;;;3.28;1.10;;;23.80;43.10;;;;;;5018458;28;20032;-64
2022/07/27 12:22:32;;;;;;;2.45;0.82;;;24.00;42.20;;;;;;5022653;28;20442;-64
2022/07/27 12:25:00;;;;;;;3.20;0.95;;;24.10;41.40;;;;;;5027043;28;20060;-63
2022/07/27 12:27:27;;;;;;;3.08;1.05;;;24.30;41.10;;;;;;5036806;28;20025;-64
2022/07/27 12:30:16;;;;;;;2.35;0.90;;;24.40;40.70;;;;;;5035737;28;20124;-64
2022/07/27 12:32:44;;;;;;;4.07;1.13;;;24.50;40.50;;;;;;5036779;28;20463;-64
2022/07/27 12:35:29;;;;;;;4.15;1.00;;;24.60;40.60;;;;;;5029803;28;20498;-64
2022/07/27 12:37:57;;;;;;;3.25;1.20;;;24.60;40.30;;;;;;5037434;28;20105;-64
2022/07/27 12:40:22;;;;;;;2.65;0.90;;;24.50;40.40;;;;;;5036957;28;20033;-64
2022/07/27 12:42:56;;;;;;;3.80;1.20;;;24.30;40.70;;;;;;5035962;28;20112;-64
2022/07/27 12:45:22;;;;;;;2.55;0.90;;;24.20;40.90;;;;;;5027071;28;20479;-64
2022/07/27 12:47:47;;;;;;;4.22;1.17;;;24.20;40.90;;;;;;5036062;28;20025;-65
2022/07/27 12:50:25;;;;;;;1.52;0.77;;;24.30;40.70;;;;;;5019009;28;20064;-65
2022/07/27 12:52:51;;;;;;;2.42;1.08;;;24.40;40.10;;;;;;5035445;28;20082;-64
2022/07/27 12:55:18;;;;;;;2.22;1.08;;;24.40;40.00;;;;;;5022620;28;20112;-64